Time;durP1;ratioP1;P1;durP2;ratioP2;P2;SDS_P1;SDS_P2;PMS_P1;PMS_P2;Temp;Humidity;BMP_temperature;BMP_pressure;BME280_temperature;BME280_humidity;BME280_pressure;Samples;Min_cycle;Max_cycle;Signal;HPM_P1;HPM_P2
2024/03/25 00:00:20;;;;;;;5.28;2.67;;;11.70;54.70;;;;;;5076671;28;20066;-61
2024/03/25 00:03:05;;;;;;;6.93;3.13;;;11.70;54.80;;;;;;5072424;28;20109;-61
2024/03/25 00:05:50;;;;;;;6.50;2.50;;;11.70;54.80;;;;;;5082588;28;20034;-60
2024/03/25 00:08:34;;;;;;;4.68;2.25;;;11.70;54.90;;;;;;5077724;28;20642;-60
2024/03/25 00:11:19;;;;;;;4.95;2.75;;;11.70;55.00;;;;;;5076395;28;20125;-60
2024/03/25 00:14:03;;;;;;;7.78;2.70;;;11.70;55.00;;;;;;5084095;28;20073;-60
2024/03/25 00:16:48;;;;;;;6.13;2.58;;;11.60;54.80;;;;;;5083204;28;20512;-60
2024/03/25 00:19:33;;;;;;;5.63;2.65;;;11.60;54.90;;;;;;5063656;28;20036;-60
2024/03/25 00:22:22;;;;;;;5.18;2.92;;;11.60;54.90;;;;;;5073896;28;20543;-60
2024/03/25 00:25:08;;;;;;;8.65;2.88;;;11.60;55.00;;;;;;5069351;28;20040;-60
2024/03/25 00:27:53;;;;;;;3.92;2.13;;;11.60;55.00;;;;;;5074620;28;20288;-60
2024/03/25 00:30:38;;;;;;;4.80;2.58;;;11.60;55.00;;;;;;5070935;28;20091;-60
2024/03/25 00:33:24;;;;;;;5.93;2.45;;;11.60;55.00;;;;;;5076352;28;20151;-60
2024/03/25 00:36:09;;;;;;;5.90;2.92;;;11.60;55.10;;;;;;5072568;28;20051;-60
2024/03/25 00:38:55;;;;;;;4.55;2.53;;;11.60;55.10;;;;;;5074234;28;20362;-60
2024/03/25 00:41:39;;;;;;;4.70;2.47;;;11.50;54.90;;;;;;5068217;28;20109;-62
2024/03/25 00:44:24;;;;;;;3.55;2.75;;;11.60;55.10;;;;;;5079844;28;20310;-62
2024/03/25 00:47:09;;;;;;;6.10;2.65;;;11.50;55.00;;;;;;5083912;28;20116;-62
2024/03/25 00:49:54;;;;;;;4.40;2.40;;;11.50;55.00;;;;;;5066741;28;20082;-62
2024/03/25 00:52:39;;;;;;;4.13;2.42;;;11.50;55.10;;;;;;5079645;28;20062;-64
2024/03/25 00:55:24;;;;;;;5.00;2.35;;;11.50;55.10;;;;;;5074431;28;20047;-62
2024/03/25 00:58:09;;;;;;;7.07;2.88;;;11.50;55.20;;;;;;5071491;28;20050;-63
2024/03/25 01:00:54;;;;;;;6.82;2.70;;;11.50;55.20;;;;;;5077238;28;20683;-64
2024/03/25 01:03:40;;;;;;;5.68;2.40;;;11.50;55.30;;;;;;5074940;28;20039;-65
2024/03/25 01:06:24;;;;;;;4.88;2.00;;;11.50;55.30;;;;;;5069452;28;20410;-65
2024/03/25 01:09:10;;;;;;;6.22;2.28;;;11.50;55.30;;;;;;5076225;28;20026;-64
2024/03/25 01:11:54;;;;;;;4.53;1.88;;;11.50;55.30;;;;;;5075300;28;20061;-63
2024/03/25 01:14:39;;;;;;;5.10;2.45;;;11.40;55.10;;;;;;5073799;28;20105;-63
2024/03/25 01:17:23;;;;;;;5.80;1.75;;;11.50;55.40;;;;;;5088478;28;20344;-62
2024/03/25 01:20:09;;;;;;;5.65;2.33;;;11.50;55.40;;;;;;5070978;28;20067;-64
2024/03/25 01:22:54;;;;;;;9.00;2.78;;;11.50;55.40;;;;;;5071376;28;20039;-64
2024/03/25 01:25:39;;;;;;;5.82;2.28;;;11.50;55.50;;;;;;5077425;28;20075;-63
2024/03/25 01:28:23;;;;;;;3.83;1.92;;;11.40;55.30;;;;;;5070141;28;20035;-64
2024/03/25 01:31:09;;;;;;;3.22;2.20;;;11.40;55.30;;;;;;5060862;28;20055;-63
2024/03/25 01:33:53;;;;;;;5.50;2.38;;;11.40;55.40;;;;;;5080223;28;20055;-64
2024/03/25 01:36:39;;;;;;;5.55;2.55;;;11.40;55.50;;;;;;5076426;28;20062;-63
2024/03/25 01:39:26;;;;;;;7.55;1.63;;;11.40;55.50;;;;;;5069208;28;20039;-63
2024/03/25 01:42:10;;;;;;;4.72;2.20;;;11.40;55.50;;;;;;5081159;28;20201;-64
2024/03/25 01:44:55;;;;;;;5.20;1.80;;;11.40;55.60;;;;;;5078866;28;20540;-64
2024/03/25 01:47:40;;;;;;;3.60;1.88;;;11.40;55.60;;;;;;5079957;28;20085;-63
2024/03/25 01:50:25;;;;;;;4.30;2.28;;;11.40;55.70;;;;;;5092871;28;20050;-65
2024/03/25 01:53:12;;;;;;;4.30;1.90;;;11.40;55.70;;;;;;5071082;28;20055;-62
2024/03/25 01:55:58;;;;;;;4.93;1.95;;;11.40;55.80;;;;;;5066098;28;20119;-63
2024/03/25 01:58:43;;;;;;;6.00;2.30;;;11.40;55.80;;;;;;5077073;28;20050;-63
2024/03/25 02:01:28;;;;;;;4.78;1.95;;;11.40;55.80;;;;;;5074799;28;20073;-63
2024/03/25 02:04:13;;;;;;;3.58;1.98;;;11.30;55.70;;;;;;5065501;28;20202;-62
2024/03/25 02:06:59;;;;;;;3.90;1.80;;;11.40;55.90;;;;;;5068789;28;20039;-62
2024/03/25 02:09:45;;;;;;;3.78;1.60;;;11.30;55.70;;;;;;5079008;28;20096;-64
2024/03/25 02:12:31;;;;;;;4.07;1.55;;;11.30;55.80;;;;;;5070552;28;20573;-62
2024/03/25 02:15:16;;;;;;;4.50;1.70;;;11.40;56.00;;;;;;5073380;28;20406;-62
2024/03/25 02:18:00;;;;;;;4.15;1.80;;;11.30;55.90;;;;;;5071204;28;20047;-62
2024/03/25 02:20:46;;;;;;;4.70;1.38;;;11.30;55.90;;;;;;5072655;28;20102;-62
2024/03/25 02:23:31;;;;;;;5.05;1.75;;;11.30;56.00;;;;;;5076322;28;20097;-63
2024/03/25 02:26:16;;;;;;;3.13;1.70;;;11.30;56.00;;;;;;5073329;28;20043;-62
2024/03/25 02:29:01;;;;;;;5.38;1.73;;;11.30;56.10;;;;;;5087095;28;20076;-65
2024/03/25 02:31:47;;;;;;;3.33;1.75;;;11.30;56.10;;;;;;5073403;28;20097;-62
2024/03/25 02:34:31;;;;;;;3.85;1.42;;;11.30;56.20;;;;;;5083713;28;20124;-61
2024/03/25 02:37:16;;;;;;;4.07;1.13;;;11.30;56.30;;;;;;5070857;28;20054;-65
2024/03/25 02:40:02;;;;;;;3.20;1.40;;;11.30;56.30;;;;;;5074452;28;20108;-62
2024/03/25 02:42:47;;;;;;;2.75;1.23;;;11.30;56.40;;;;;;5081653;28;20671;-63
2024/03/25 02:45:31;;;;;;;2.00;1.27;;;11.30;56.40;;;;;;5083140;28;20478;-64
2024/03/25 02:48:16;;;;;;;2.78;1.10;;;11.30;56.40;;;;;;5083521;28;20063;-63
2024/03/25 02:51:00;;;;;;;1.90;1.27;;;11.30;56.50;;;;;;5079874;28;20301;-63
2024/03/25 02:53:45;;;;;;;3.35;1.30;;;11.30;56.50;;;;;;5083936;28;20397;-65
2024/03/25 02:56:29;;;;;;;3.17;1.73;;;11.30;56.60;;;;;;5085996;28;20106;-63
2024/03/25 02:59:14;;;;;;;3.38;1.30;;;11.30;56.60;;;;;;5086687;28;20088;-63
2024/03/25 03:01:58;;;;;;;2.25;1.55;;;11.30;56.60;;;;;;5081398;28;20055;-64
2024/03/25 03:04:43;;;;;;;4.15;1.38;;;11.30;56.70;;;;;;5082729;28;20509;-64
2024/03/25 03:07:28;;;;;;;2.53;1.00;;;11.30;56.70;;;;;;5080702;28;20047;-64
2024/03/25 03:10:12;;;;;;;2.97;1.30;;;11.30;56.70;;;;;;5076629;28;20063;-63
2024/03/25 03:12:56;;;;;;;3.20;1.30;;;11.30;56.80;;;;;;5075670;28;20392;-64
2024/03/25 03:15:44;;;;;;;3.80;1.35;;;11.30;56.90;;;;;;5083008;27;20504;-62
2024/03/25 03:18:29;;;;;;;3.35;1.50;;;11.30;56.90;;;;;;5074456;28;20054;-64
2024/03/25 03:21:13;;;;;;;2.22;1.15;;;11.20;56.70;;;;;;5078058;28;20150;-64
2024/03/25 03:23:58;;;;;;;2.78;1.08;;;11.30;57.00;;;;;;5070489;28;20118;-64
2024/03/25 03:26:42;;;;;;;3.72;1.52;;;11.20;56.80;;;;;;5069232;28;20464;-63
2024/03/25 03:29:27;;;;;;;3.53;1.10;;;11.20;56.90;;;;;;5067616;28;20435;-62
2024/03/25 03:32:11;;;;;;;3.47;1.23;;;11.20;56.90;;;;;;5076538;28;20066;-62
2024/03/25 03:34:56;;;;;;;1.10;1.00;;;11.20;57.00;;;;;;5082962;28;20140;-64
2024/03/25 03:37:40;;;;;;;2.35;1.08;;;11.20;57.00;;;;;;5074910;28;20576;-64
2024/03/25 03:40:25;;;;;;;2.38;0.93;;;11.30;57.30;;;;;;5060722;28;20047;-62
2024/03/25 03:43:10;;;;;;;3.83;1.45;;;11.20;57.10;;;;;;5075593;28;20489;-64
2024/03/25 03:45:54;;;;;;;2.22;1.00;;;11.20;57.20;;;;;;5081513;28;20093;-61
2024/03/25 03:48:39;;;;;;;2.38;0.90;;;11.20;57.20;;;;;;5067341;28;20077;-62
2024/03/25 03:51:24;;;;;;;2.40;1.00;;;11.20;57.30;;;;;;5068095;28;20044;-62
2024/03/25 03:54:08;;;;;;;3.00;0.80;;;11.20;57.30;;;;;;5074772;28;20396;-62
2024/03/25 03:56:52;;;;;;;1.55;0.77;;;11.20;57.30;;;;;;5079952;28;20079;-64
2024/03/25 03:59:37;;;;;;;0.90;0.82;;;11.20;57.30;;;;;;5059708;28;20091;-62
2024/03/25 04:02:23;;;;;;;1.45;0.80;;;11.20;57.40;;;;;;5078121;28;20153;-62
2024/03/25 04:05:08;;;;;;;1.85;1.10;;;11.20;57.50;;;;;;5072763;28;20226;-63
2024/03/25 04:07:52;;;;;;;2.42;1.20;;;11.20;57.50;;;;;;5096678;28;20540;-62
2024/03/25 04:10:37;;;;;;;1.17;1.00;;;11.20;57.50;;;;;;5068203;28;20551;-61
2024/03/25 04:13:22;;;;;;;2.15;1.10;;;11.20;57.60;;;;;;5084681;28;20054;-62
2024/03/25 04:16:07;;;;;;;2.33;1.00;;;11.20;57.60;;;;;;5084236;28;20154;-64
2024/03/25 04:18:51;;;;;;;2.60;1.10;;;11.20;57.70;;;;;;5079603;28;20030;-61
2024/03/25 04:21:36;;;;;;;1.80;0.77;;;11.20;57.70;;;;;;5079136;28;20536;-61
2024/03/25 04:24:21;;;;;;;1.80;0.98;;;11.20;57.70;;;;;;5067741;28;20553;-61
2024/03/25 04:27:05;;;;;;;2.92;1.70;;;11.20;57.80;;;;;;5066290;28;20054;-62
2024/03/25 04:29:50;;;;;;;1.17;1.00;;;11.20;57.80;;;;;;5075258;28;20185;-61
2024/03/25 04:32:35;;;;;;;2.28;1.55;;;11.20;57.80;;;;;;5077684;27;20575;-60
2024/03/25 04:35:20;;;;;;;1.33;0.90;;;11.20;57.90;;;;;;5073194;28;20464;-60
2024/03/25 04:38:04;;;;;;;1.25;0.80;;;11.20;57.90;;;;;;5065501;28;20098;-60
2024/03/25 04:40:49;;;;;;;2.60;1.33;;;11.20;58.00;;;;;;5068760;28;20039;-60
2024/03/25 04:43:34;;;;;;;1.63;1.05;;;11.20;58.00;;;;;;5075397;28;20145;-62
2024/03/25 04:46:19;;;;;;;1.70;0.90;;;11.20;58.10;;;;;;5071130;28;20047;-61
2024/03/25 04:49:04;;;;;;;1.88;1.20;;;11.20;58.10;;;;;;5074991;28;20084;-61
2024/03/25 04:51:51;;;;;;;0.85;0.65;;;11.20;58.10;;;;;;5076228;28;20082;-62
2024/03/25 04:54:36;;;;;;;2.90;1.15;;;11.20;58.20;;;;;;5071435;28;20512;-62
2024/03/25 04:57:20;;;;;;;2.20;1.05;;;11.20;58.20;;;;;;5083148;28;20093;-62
2024/03/25 05:00:06;;;;;;;3.03;2.03;;;11.20;58.20;;;;;;5072858;28;20067;-61
2024/03/25 05:02:52;;;;;;;1.35;0.90;;;11.10;58.10;;;;;;5081010;28;20109;-61
2024/03/25 05:05:36;;;;;;;1.38;0.98;;;11.20;58.40;;;;;;5075706;28;20061;-61
2024/03/25 05:08:21;;;;;;;1.88;1.10;;;11.10;58.20;;;;;;5075098;28;20128;-61
2024/03/25 05:11:05;;;;;;;1.70;1.00;;;11.20;58.40;;;;;;5072725;28;20051;-62
2024/03/25 05:13:50;;;;;;;1.20;1.00;;;11.20;58.50;;;;;;5066168;28;20575;-61
2024/03/25 05:16:35;;;;;;;1.25;0.93;;;11.20;58.50;;;;;;5073796;28;20074;-62
2024/03/25 05:19:19;;;;;;;1.85;0.80;;;11.20;58.60;;;;;;5077170;28;20038;-62
2024/03/25 05:22:04;;;;;;;1.42;0.80;;;11.20;58.60;;;;;;5064292;28;20052;-62
2024/03/25 05:24:50;;;;;;;2.50;1.23;;;11.20;58.70;;;;;;5061339;28;20166;-63
2024/03/25 05:27:34;;;;;;;1.17;1.00;;;11.20;58.70;;;;;;5071668;28;20162;-64
2024/03/25 05:30:19;;;;;;;1.10;0.90;;;11.20;58.70;;;;;;5068697;28;20250;-63
2024/03/25 05:33:04;;;;;;;1.08;0.90;;;11.20;58.80;;;;;;5066964;28;20359;-64
2024/03/25 05:35:48;;;;;;;1.08;0.70;;;11.20;58.80;;;;;;5071541;28;20042;-64
2024/03/25 05:38:33;;;;;;;1.02;0.88;;;11.20;58.80;;;;;;5067831;28;20043;-64
2024/03/25 05:41:17;;;;;;;1.55;0.70;;;11.20;58.90;;;;;;5066820;28;20046;-63
2024/03/25 05:44:01;;;;;;;0.60;0.60;;;11.20;58.90;;;;;;5056576;28;20039;-63
2024/03/25 05:46:46;;;;;;;1.02;0.70;;;11.20;59.00;;;;;;5069092;28;20090;-62
2024/03/25 05:49:31;;;;;;;1.10;0.77;;;11.20;59.00;;;;;;5067729;28;20560;-62
2024/03/25 05:52:16;;;;;;;0.68;0.57;;;11.20;59.00;;;;;;5064549;28;20235;-62
2024/03/25 05:55:00;;;;;;;0.50;0.50;;;11.20;59.10;;;;;;5066929;28;20043;-62
2024/03/25 05:57:45;;;;;;;1.58;0.73;;;11.20;59.10;;;;;;5071339;28;20058;-62
2024/03/25 06:00:30;;;;;;;1.30;0.50;;;11.20;59.20;;;;;;5074041;28;20097;-62
2024/03/25 06:03:16;;;;;;;1.48;0.80;;;11.20;59.20;;;;;;5073295;28;20149;-62
2024/03/25 06:06:01;;;;;;;1.33;0.80;;;11.20;59.30;;;;;;5075627;28;20493;-62
2024/03/25 06:08:46;;;;;;;1.17;0.52;;;11.30;59.50;;;;;;5089511;27;20093;-61
2024/03/25 06:11:30;;;;;;;1.00;0.70;;;11.20;59.40;;;;;;5077243;28;20123;-61
2024/03/25 06:14:16;;;;;;;0.60;0.57;;;11.20;59.40;;;;;;5086399;28;20235;-59
2024/03/25 06:17:00;;;;;;;1.35;0.70;;;11.30;59.70;;;;;;5074810;28;20074;-57
2024/03/25 06:19:45;;;;;;;1.40;0.70;;;11.30;59.70;;;;;;5072655;28;20644;-60
2024/03/25 06:22:29;;;;;;;1.67;0.60;;;11.30;59.70;;;;;;5069500;28;20046;-64
2024/03/25 06:25:15;;;;;;;1.75;0.68;;;11.30;59.80;;;;;;5067015;28;20457;-61
2024/03/25 06:27:59;;;;;;;0.70;0.43;;;11.30;59.80;;;;;;5076619;27;20317;-61
2024/03/25 06:36:55;;;;;;;0.45;0.45;;;11.30;59.90;;;;;;5065741;28;20071;-61
2024/03/25 06:39:39;;;;;;;1.88;0.70;;;11.30;59.90;;;;;;5075216;28;20136;-62
2024/03/25 06:42:24;;;;;;;2.83;0.70;;;11.30;59.90;;;;;;5076401;28;20081;-61
2024/03/25 06:45:09;;;;;;;1.67;0.63;;;11.40;60.20;;;;;;5068978;28;20123;-62
2024/03/25 06:47:54;;;;;;;2.97;0.57;;;11.30;60.20;;;;;;5062101;28;20063;-63
2024/03/25 06:50:39;;;;;;;2.67;1.50;;;11.40;60.90;;;;;;5070135;28;20623;-62
2024/03/25 06:53:24;;;;;;;2.75;1.10;;;11.50;61.50;;;;;;5063319;28;20071;-60
2024/03/25 06:56:08;;;;;;;4.07;1.98;;;11.50;62.00;;;;;;5072455;28;20077;-62
2024/03/25 06:58:53;;;;;;;2.92;1.35;;;11.60;62.50;;;;;;5065250;28;20047;-60
2024/03/25 07:01:38;;;;;;;6.90;2.55;;;11.70;62.90;;;;;;5074348;28;20071;-59
2024/03/25 07:04:23;;;;;;;3.22;1.45;;;11.70;63.00;;;;;;5070158;28;20067;-61
2024/03/25 07:07:08;;;;;;;4.20;2.00;;;11.70;63.10;;;;;;5071439;28;20067;-61
2024/03/25 07:09:53;;;;;;;3.97;2.30;;;11.80;63.30;;;;;;5070837;28;20039;-61
2024/03/25 07:12:39;;;;;;;7.80;2.38;;;11.80;63.30;;;;;;5067358;28;20399;-61
2024/03/25 07:15:23;;;;;;;7.05;2.97;;;11.80;63.40;;;;;;5075513;27;20528;-62
2024/03/25 07:18:10;;;;;;;4.93;2.35;;;11.90;63.60;;;;;;5067062;28;20043;-63
2024/03/25 07:20:54;;;;;;;6.38;2.50;;;11.90;63.70;;;;;;5072112;28;20156;-60
2024/03/25 07:23:39;;;;;;;6.00;2.83;;;12.00;64.00;;;;;;5066408;28;20117;-60
2024/03/25 07:26:23;;;;;;;5.05;2.78;;;12.00;64.10;;;;;;5065049;28;20119;-61
2024/03/25 07:29:08;;;;;;;6.05;2.33;;;12.00;64.10;;;;;;5070050;28;20560;-61
2024/03/25 07:31:53;;;;;;;6.70;2.78;;;12.00;64.20;;;;;;5073815;28;20042;-64
2024/03/25 07:34:38;;;;;;;5.75;3.22;;;12.10;64.40;;;;;;5075034;28;20501;-65
2024/03/25 07:37:23;;;;;;;4.25;2.15;;;12.10;64.50;;;;;;5081580;28;20521;-61
2024/03/25 07:40:09;;;;;;;3.80;1.85;;;12.20;64.70;;;;;;5066406;28;20117;-61
2024/03/25 07:42:54;;;;;;;5.97;2.40;;;12.20;64.80;;;;;;5064399;28;20047;-61
2024/03/25 07:45:39;;;;;;;3.97;2.20;;;12.30;65.00;;;;;;5078811;28;20051;-64
2024/03/25 07:48:24;;;;;;;3.78;2.03;;;12.30;65.00;;;;;;5080140;28;20051;-64
2024/03/25 07:51:08;;;;;;;7.63;2.05;;;12.30;65.00;;;;;;5059635;28;20558;-63
2024/03/25 07:53:54;;;;;;;4.03;1.88;;;12.40;65.10;;;;;;5073983;28;20055;-61
2024/03/25 07:56:39;;;;;;;5.10;1.77;;;12.40;65.10;;;;;;5089348;28;20116;-61
2024/03/25 07:59:24;;;;;;;3.80;1.85;;;12.40;65.00;;;;;;5079146;28;20554;-60
2024/03/25 08:02:08;;;;;;;4.85;2.15;;;12.50;65.10;;;;;;5075341;27;20062;-60
2024/03/25 08:04:53;;;;;;;8.90;1.90;;;12.50;65.00;;;;;;5080677;28;20046;-60
2024/03/25 08:07:38;;;;;;;2.28;1.23;;;12.50;64.90;;;;;;5076559;28;20255;-60
2024/03/25 08:10:22;;;;;;;3.67;1.52;;;12.60;65.10;;;;;;5071200;28;20127;-60
2024/03/25 08:13:07;;;;;;;7.80;1.80;;;12.70;65.10;;;;;;5063734;28;20795;-60
2024/03/25 08:15:52;;;;;;;3.63;1.50;;;12.80;65.10;;;;;;5077009;28;20096;-60
2024/03/25 08:18:36;;;;;;;3.05;1.52;;;12.80;65.00;;;;;;5075400;28;20567;-59
2024/03/25 08:21:22;;;;;;;3.67;1.48;;;12.90;65.00;;;;;;5068579;28;20063;-61
2024/03/25 08:24:07;;;;;;;4.93;1.52;;;12.90;64.80;;;;;;5062214;28;20113;-60
2024/03/25 08:26:51;;;;;;;4.20;1.98;;;12.90;64.60;;;;;;5082998;28;20073;-60
2024/03/25 08:29:36;;;;;;;2.65;1.40;;;12.90;64.50;;;;;;5072633;28;20128;-60
2024/03/25 08:32:21;;;;;;;3.30;1.35;;;13.00;64.50;;;;;;5073833;28;20114;-60
2024/03/25 08:35:06;;;;;;;6.47;1.80;;;13.10;64.60;;;;;;5061055;28;20469;-60
2024/03/25 08:37:51;;;;;;;4.95;2.22;;;13.10;64.40;;;;;;5072496;28;20417;-60
2024/03/25 08:40:36;;;;;;;4.70;1.75;;;13.20;64.40;;;;;;5066872;28;20089;-60
2024/03/25 08:43:20;;;;;;;4.40;1.30;;;13.30;64.40;;;;;;5066593;28;20647;-60
2024/03/25 08:46:05;;;;;;;3.72;1.27;;;13.30;64.10;;;;;;5063248;28;20241;-60
2024/03/25 08:48:50;;;;;;;2.88;1.50;;;13.40;64.10;;;;;;5074867;28;20728;-60
2024/03/25 08:51:35;;;;;;;5.40;1.48;;;13.40;63.90;;;;;;5074646;28;20576;-60
2024/03/25 08:54:20;;;;;;;7.65;1.48;;;13.50;63.90;;;;;;5073493;28;20046;-60
2024/03/25 08:57:04;;;;;;;5.05;1.60;;;13.60;63.90;;;;;;5065604;28;20063;-60
2024/03/25 08:59:49;;;;;;;4.00;1.83;;;13.60;63.70;;;;;;5069607;28;20109;-60
2024/03/25 09:02:34;;;;;;;6.63;1.60;;;13.70;63.70;;;;;;5090934;27;20258;-60
2024/03/25 09:05:18;;;;;;;3.33;1.70;;;13.70;63.50;;;;;;5071442;28;20122;-60
2024/03/25 09:08:03;;;;;;;3.90;1.13;;;13.80;63.50;;;;;;5063301;28;20670;-60
2024/03/25 09:11:03;;;;;;;6.63;1.95;;;13.80;63.40;;;;;;5073065;28;20048;-60
2024/03/25 09:13:47;;;;;;;2.95;1.50;;;13.80;63.20;;;;;;5074194;28;20101;-59
2024/03/25 09:16:32;;;;;;;3.90;1.10;;;13.90;63.30;;;;;;5083190;28;20039;-60
2024/03/25 09:19:16;;;;;;;3.35;1.90;;;13.90;63.20;;;;;;5070219;27;20469;-58
2024/03/25 09:22:01;;;;;;;4.10;1.85;;;13.90;63.10;;;;;;5067812;28;20035;-60
2024/03/25 09:24:45;;;;;;;5.90;1.45;;;14.00;63.10;;;;;;5068926;28;20043;-60
2024/03/25 09:27:30;;;;;;;4.75;1.52;;;14.10;63.10;;;;;;5077718;27;20035;-59
2024/03/25 09:30:14;;;;;;;3.28;0.88;;;14.10;62.90;;;;;;5069714;28;20036;-59
2024/03/25 09:32:59;;;;;;;3.83;1.13;;;14.20;62.90;;;;;;5056546;28;20070;-60
2024/03/25 09:35:43;;;;;;;3.65;1.60;;;14.20;62.70;;;;;;5075968;28;20564;-60
2024/03/25 09:38:28;;;;;;;5.70;1.30;;;14.30;62.70;;;;;;5068643;28;20125;-59
2024/03/25 09:41:12;;;;;;;2.30;1.23;;;14.30;62.60;;;;;;5068305;28;20050;-60
2024/03/25 09:43:57;;;;;;;3.30;1.38;;;14.40;62.60;;;;;;5081227;28;20031;-60
2024/03/25 09:46:42;;;;;;;1.27;0.90;;;14.40;62.40;;;;;;5066414;28;20121;-60
2024/03/25 09:49:28;;;;;;;2.47;1.10;;;14.40;62.30;;;;;;5066908;28;20043;-59
2024/03/25 09:52:13;;;;;;;3.15;0.90;;;14.40;62.10;;;;;;5066703;28;20051;-60
2024/03/25 09:54:58;;;;;;;3.40;1.42;;;14.40;62.00;;;;;;5066600;28;20042;-60
2024/03/25 09:57:43;;;;;;;2.75;0.90;;;14.50;62.10;;;;;;5068768;28;20220;-60
2024/03/25 10:00:30;;;;;;;2.53;1.00;;;14.50;62.00;;;;;;5064365;28;20263;-60
2024/03/25 10:03:14;;;;;;;3.65;0.95;;;14.50;61.90;;;;;;5075961;28;20552;-60
2024/03/25 10:05:59;;;;;;;1.48;0.93;;;14.50;61.80;;;;;;5065880;28;20030;-61
2024/03/25 10:08:45;;;;;;;4.18;0.93;;;14.60;61.80;;;;;;5068597;28;20417;-60
2024/03/25 10:11:32;;;;;;;3.65;1.50;;;14.60;61.70;;;;;;5066059;28;20042;-60
2024/03/25 10:14:16;;;;;;;3.45;1.40;;;14.60;61.60;;;;;;5064819;28;20093;-61
2024/03/25 10:17:02;;;;;;;2.28;0.90;;;14.70;61.60;;;;;;5075174;28;20058;-59
2024/03/25 10:19:47;;;;;;;1.88;1.13;;;14.70;61.50;;;;;;5075489;28;20139;-61
2024/03/25 10:22:41;;;;;;;4.40;1.40;;;14.70;61.40;;;;;;5072429;28;20810;-61
2024/03/25 10:25:28;;;;;;;3.70;1.20;;;14.70;61.30;;;;;;5061406;28;20732;-61
2024/03/25 10:28:13;;;;;;;6.38;1.20;;;14.70;61.30;;;;;;5065625;28;20556;-62
2024/03/25 10:31:04;;;;;;;4.05;1.27;;;14.70;61.20;;;;;;5076522;28;20074;-61
2024/03/25 10:33:48;;;;;;;3.58;1.17;;;14.70;61.10;;;;;;5072500;28;20045;-62
2024/03/25 10:36:33;;;;;;;4.72;1.48;;;14.70;61.00;;;;;;5070480;28;20170;-62
2024/03/25 10:39:20;;;;;;;2.30;1.02;;;14.80;61.10;;;;;;5068750;28;20601;-59
2024/03/25 10:42:05;;;;;;;5.20;1.27;;;14.80;60.90;;;;;;5064184;28;20044;-60
2024/03/25 10:44:52;;;;;;;5.22;1.45;;;14.90;61.00;;;;;;5071431;28;20050;-60
2024/03/25 10:47:38;;;;;;;3.72;1.20;;;15.00;61.00;;;;;;5065637;28;20497;-60
2024/03/25 10:50:27;;;;;;;4.68;1.10;;;15.10;61.00;;;;;;5073176;28;20507;-60
2024/03/25 10:53:13;;;;;;;3.72;1.83;;;15.20;60.80;;;;;;5062085;28;20126;-60
2024/03/25 10:56:01;;;;;;;4.00;1.30;;;15.30;60.90;;;;;;5073615;28;20108;-61
2024/03/25 10:58:48;;;;;;;3.97;1.05;;;15.30;60.70;;;;;;5074292;28;20496;-61
2024/03/25 11:01:34;;;;;;;3.88;1.52;;;15.40;60.70;;;;;;5071711;28;20126;-61
2024/03/25 11:04:21;;;;;;;3.85;1.30;;;15.40;60.60;;;;;;5065324;28;20079;-61
2024/03/25 11:07:13;;;;;;;3.58;1.27;;;15.40;60.40;;;;;;5066697;28;20572;-61
2024/03/25 11:10:08;;;;;;;3.45;1.40;;;15.50;60.50;;;;;;5066671;28;20533;-61
2024/03/25 11:12:53;;;;;;;2.60;1.48;;;15.50;60.40;;;;;;5073282;28;20043;-60
2024/03/25 11:15:43;;;;;;;3.35;1.20;;;15.50;60.30;;;;;;5079520;28;20567;-60
2024/03/25 11:18:30;;;;;;;3.53;1.00;;;15.60;60.30;;;;;;5077039;28;20046;-60
2024/03/25 11:21:23;;;;;;;3.20;0.95;;;15.60;60.10;;;;;;5071809;28;20092;-60
2024/03/25 11:24:08;;;;;;;3.13;1.30;;;15.70;60.10;;;;;;5064911;28;20039;-60
2024/03/25 11:26:53;;;;;;;2.78;1.02;;;15.80;60.20;;;;;;5069564;28;20085;-60
2024/03/25 11:29:38;;;;;;;2.28;1.10;;;15.80;60.00;;;;;;5073216;28;20281;-60
2024/03/25 11:32:23;;;;;;;2.70;0.93;;;15.90;60.00;;;;;;5076795;28;20147;-63
2024/03/25 11:35:09;;;;;;;1.83;0.60;;;15.90;59.80;;;;;;5066788;28;20665;-60
2024/03/25 11:37:54;;;;;;;2.17;1.10;;;16.00;59.80;;;;;;5070055;28;20054;-63
2024/03/25 11:40:41;;;;;;;4.43;1.27;;;16.10;59.80;;;;;;5067057;28;20047;-60
2024/03/25 11:43:25;;;;;;;3.60;1.02;;;16.10;59.50;;;;;;5067830;28;20075;-60
2024/03/25 11:46:10;;;;;;;2.33;0.80;;;16.10;59.40;;;;;;5073482;28;20743;-60
2024/03/25 11:48:55;;;;;;;2.58;1.13;;;16.20;59.50;;;;;;5073290;28;20039;-61
2024/03/25 11:51:44;;;;;;;2.85;0.90;;;16.20;59.40;;;;;;5080231;28;20135;-60
2024/03/25 11:54:29;;;;;;;4.80;1.02;;;16.20;59.20;;;;;;5075744;28;20098;-60
2024/03/25 11:57:14;;;;;;;1.73;0.85;;;16.30;59.30;;;;;;5071285;28;20058;-60
2024/03/25 11:59:59;;;;;;;3.50;1.38;;;16.30;59.30;;;;;;5064477;28;20058;-61
2024/03/25 12:02:46;;;;;;;4.28;1.30;;;16.30;59.20;;;;;;5079530;28;20051;-60
2024/03/25 12:05:35;;;;;;;4.05;1.00;;;16.30;59.00;;;;;;5079544;28;20547;-60
2024/03/25 12:08:25;;;;;;;4.32;0.90;;;16.40;59.10;;;;;;5074961;28;20042;-67
2024/03/25 12:11:19;;;;;;;3.65;1.15;;;16.40;59.00;;;;;;5075006;28;20039;-59
2024/03/25 12:14:05;;;;;;;3.88;1.23;;;16.40;59.00;;;;;;5064370;28;20455;-60
2024/03/25 12:16:50;;;;;;;4.95;1.50;;;16.40;59.00;;;;;;5072417;28;20058;-60
2024/03/25 12:19:35;;;;;;;1.15;0.65;;;16.40;58.90;;;;;;5074139;28;20545;-59
2024/03/25 12:22:19;;;;;;;4.22;1.15;;;16.40;58.80;;;;;;5076515;28;20284;-61
2024/03/25 12:25:06;;;;;;;3.05;1.02;;;16.40;58.80;;;;;;5065745;28;20035;-59
2024/03/25 12:27:50;;;;;;;2.50;0.70;;;16.40;58.70;;;;;;5064187;28;20097;-60
2024/03/25 12:30:49;;;;;;;2.78;1.27;;;16.40;58.70;;;;;;5076212;28;20119;-60
2024/03/25 12:33:46;;;;;;;3.90;1.20;;;16.40;58.60;;;;;;5061797;28;20044;-60
2024/03/25 12:36:33;;;;;;;2.85;1.17;;;16.40;58.50;;;;;;5075955;28;20473;-60
2024/03/25 12:39:21;;;;;;;2.35;1.10;;;16.40;58.50;;;;;;5066806;27;20588;-60
2024/03/25 12:42:06;;;;;;;2.22;1.10;;;16.30;58.30;;;;;;5074291;28;20060;-60
2024/03/25 12:44:51;;;;;;;2.25;1.00;;;16.40;58.40;;;;;;5076177;28;20042;-60
2024/03/25 12:47:35;;;;;;;3.53;1.08;;;16.40;58.30;;;;;;5082674;28;20854;-60
2024/03/25 12:50:23;;;;;;;2.13;0.90;;;16.40;58.30;;;;;;5080721;28;20115;-60
2024/03/25 12:53:08;;;;;;;3.50;1.00;;;16.40;58.30;;;;;;5076552;28;20798;-60
2024/03/25 12:55:53;;;;;;;3.58;1.38;;;16.40;58.20;;;;;;5076116;28;20062;-60
2024/03/25 12:58:38;;;;;;;2.30;0.77;;;16.40;58.20;;;;;;5079204;28;20093;-60
2024/03/25 13:01:22;;;;;;;2.47;1.15;;;16.40;58.10;;;;;;5077953;28;20164;-61
2024/03/25 13:04:07;;;;;;;3.25;1.02;;;16.40;58.10;;;;;;5071861;28;20616;-60
2024/03/25 13:06:52;;;;;;;4.13;1.30;;;16.40;58.00;;;;;;5079550;28;20346;-60
2024/03/25 13:09:37;;;;;;;4.80;1.50;;;16.40;58.00;;;;;;5070294;28;20055;-60
2024/03/25 13:12:22;;;;;;;2.75;1.13;;;16.50;58.10;;;;;;5072040;28;20161;-60
2024/03/25 13:15:07;;;;;;;2.75;1.23;;;16.50;58.00;;;;;;5071702;28;20472;-60
2024/03/25 13:17:51;;;;;;;5.03;1.80;;;16.50;57.90;;;;;;5072546;28;20560;-60
2024/03/25 13:20:36;;;;;;;2.67;1.20;;;16.60;58.00;;;;;;5064540;28;20391;-60
2024/03/25 13:23:21;;;;;;;4.88;1.20;;;16.60;57.90;;;;;;5067449;28;20031;-60
2024/03/25 13:26:05;;;;;;;4.07;1.55;;;16.70;57.90;;;;;;5061682;28;20114;-61
2024/03/25 13:28:50;;;;;;;3.42;1.30;;;16.80;58.00;;;;;;5067900;28;20043;-63
2024/03/25 13:31:35;;;;;;;4.80;1.63;;;16.80;57.80;;;;;;5067940;28;20109;-60
2024/03/25 13:34:20;;;;;;;2.35;1.23;;;16.90;57.80;;;;;;5075324;28;20066;-60
2024/03/25 13:37:04;;;;;;;3.08;1.45;;;16.90;57.70;;;;;;5069354;28;20543;-60
2024/03/25 13:39:50;;;;;;;2.38;1.02;;;17.10;57.90;;;;;;5070653;28;20043;-60
2024/03/25 13:42:35;;;;;;;4.30;1.20;;;17.20;57.90;;;;;;5077949;28;20097;-60
2024/03/25 13:45:19;;;;;;;3.10;1.38;;;17.30;57.90;;;;;;5076006;28;20083;-60
2024/03/25 13:48:04;;;;;;;3.67;1.73;;;17.40;57.90;;;;;;5069758;28;20389;-60
2024/03/25 13:50:53;;;;;;;5.53;1.90;;;17.60;58.00;;;;;;5071581;28;20251;-60
2024/03/25 13:53:38;;;;;;;3.50;2.22;;;17.70;57.90;;;;;;5069639;28;20059;-60
2024/03/25 13:56:22;;;;;;;4.18;1.88;;;17.70;57.70;;;;;;5059044;28;20152;-60
2024/03/25 13:59:07;;;;;;;6.97;2.25;;;17.80;57.70;;;;;;5080258;28;20061;-60
2024/03/25 14:01:53;;;;;;;3.00;2.45;;;18.00;57.90;;;;;;5062273;28;20733;-60
2024/03/25 14:04:40;;;;;;;3.85;2.00;;;18.00;57.80;;;;;;5069183;28;20043;-60
2024/03/25 14:07:24;;;;;;;3.60;1.70;;;18.10;57.80;;;;;;5073378;28;20047;-61
2024/03/25 14:10:11;;;;;;;5.00;1.80;;;18.10;57.70;;;;;;5057675;28;20042;-60
2024/03/25 14:12:55;;;;;;;5.25;1.85;;;18.10;57.60;;;;;;5070519;28;20078;-61
2024/03/25 14:15:40;;;;;;;5.07;1.60;;;18.20;57.70;;;;;;5080313;28;20586;-60
2024/03/25 14:18:24;;;;;;;3.40;1.63;;;18.20;57.50;;;;;;5062930;28;20059;-60
2024/03/25 14:21:09;;;;;;;3.17;1.30;;;18.30;57.50;;;;;;5065953;28;20100;-60
2024/03/25 14:23:54;;;;;;;5.30;1.77;;;18.40;57.60;;;;;;5069411;28;20601;-60
2024/03/25 14:26:38;;;;;;;5.35;2.00;;;18.50;57.50;;;;;;5062521;28;20583;-60